createdAt,value
2023-04-15T00:00:39.241Z,11.55
2023-04-15T00:04:39.310Z,11.55
2023-04-15T00:08:39.245Z,11.53
2023-04-15T00:12:38.850Z,11.52
2023-04-15T00:16:39.350Z,11.45
2023-04-15T00:20:39.242Z,11.47
2023-04-15T00:24:39.269Z,11.45
2023-04-15T00:28:38.905Z,11.43
2023-04-15T00:32:39.049Z,11.45
2023-04-15T00:36:39.345Z,11.46
2023-04-15T00:40:39.271Z,11.41
2023-04-15T00:44:39.269Z,11.31
2023-04-15T00:48:39.037Z,11.35
2023-04-15T00:52:39.116Z,11.31
2023-04-15T00:56:39.726Z,11.32
2023-04-15T01:00:39.230Z,11.17
2023-04-15T01:04:39.399Z,11.00
2023-04-15T01:08:39.143Z,11.07
2023-04-15T01:12:39.108Z,11.18
2023-04-15T01:16:39.202Z,11.28
2023-04-15T01:20:39.312Z,11.35
2023-04-15T01:24:39.763Z,11.35
2023-04-15T01:28:39.378Z,11.36
2023-04-15T01:32:39.839Z,11.28
2023-04-15T01:36:39.770Z,11.24
2023-04-15T01:40:39.794Z,11.19
2023-04-15T01:44:39.795Z,11.25
2023-04-15T01:48:39.411Z,11.31
2023-04-15T01:52:39.494Z,11.29
2023-04-15T01:56:39.790Z,11.32
2023-04-15T02:00:39.808Z,11.34
2023-04-15T02:04:39.824Z,11.34
2023-04-15T02:08:39.678Z,11.34
2023-04-15T02:12:39.776Z,11.38
2023-04-15T02:16:40.336Z,11.36
2023-04-15T02:20:40.275Z,11.35
2023-04-15T02:24:39.842Z,11.39
2023-04-15T02:28:39.873Z,11.36
2023-04-15T02:32:40.480Z,11.34
2023-04-15T02:36:39.955Z,11.35
2023-04-15T02:40:40.322Z,11.34
2023-04-15T02:44:40.399Z,11.35
2023-04-15T02:48:40.117Z,11.32
2023-04-15T02:52:40.298Z,11.36
2023-04-15T02:56:40.308Z,11.34
2023-04-15T03:00:52.313Z,11.34
2023-04-15T03:04:52.800Z,11.34
2023-04-15T03:08:40.127Z,11.35
2023-04-15T03:12:40.295Z,11.34
2023-04-15T03:16:40.088Z,11.32
2023-04-15T03:20:40.166Z,11.34
2023-04-15T03:24:50.746Z,11.35
2023-04-15T03:28:39.981Z,11.31
2023-04-15T03:32:40.028Z,11.28
2023-04-15T03:36:39.941Z,11.19
2023-04-15T03:40:39.874Z,11.22
2023-04-15T03:44:39.996Z,11.11
2023-04-15T03:48:40.149Z,11.12
2023-04-15T03:52:40.347Z,11.04
2023-04-15T03:56:40.535Z,11.08
2023-04-15T04:00:40.634Z,11.10
2023-04-15T04:04:40.799Z,11.10
2023-04-15T04:08:41.042Z,11.10
2023-04-15T04:12:41.384Z,11.10
2023-04-15T04:16:41.348Z,11.12
2023-04-15T04:20:41.383Z,11.10
2023-04-15T04:24:41.517Z,11.10
2023-04-15T04:28:41.839Z,11.10
2023-04-15T04:32:41.792Z,11.14
2023-04-15T04:36:41.864Z,11.18
2023-04-15T04:40:41.980Z,11.19
2023-04-15T04:44:42.078Z,10.97
2023-04-15T04:48:42.365Z,11.06
2023-04-15T04:52:42.380Z,11.08
2023-04-15T04:56:42.365Z,10.89
2023-04-15T05:00:42.425Z,10.94
2023-04-15T05:04:42.568Z,10.98
2023-04-15T05:08:42.730Z,11.01
2023-04-15T05:12:43.503Z,11.01
2023-04-15T05:16:43.490Z,11.01
2023-04-15T05:20:43.227Z,10.98
2023-04-15T05:24:43.530Z,10.98
2023-04-15T05:28:43.875Z,11.04
2023-04-15T05:32:44.057Z,11.03
2023-04-15T05:36:43.892Z,11.04
2023-04-15T05:40:44.074Z,11.04
2023-04-15T05:44:44.386Z,11.10
2023-04-15T05:48:44.392Z,11.10
2023-04-15T05:52:44.889Z,11.08
2023-04-15T05:56:44.678Z,11.07
2023-04-15T06:00:44.831Z,11.14
2023-04-15T06:04:45.378Z,11.14
2023-04-15T06:08:56.916Z,11.18
2023-04-15T06:12:45.013Z,11.17
2023-04-15T06:21:04.970Z,11.21
2023-04-15T06:25:15.244Z,11.25
2023-04-15T06:29:04.953Z,11.26
2023-04-15T06:33:05.217Z,11.29
2023-04-15T06:37:06.324Z,11.35
2023-04-15T06:41:04.886Z,11.38
2023-04-15T06:45:15.250Z,11.41
2023-04-15T06:49:04.773Z,11.46
2023-04-15T06:53:04.741Z,11.42
2023-04-15T06:57:04.707Z,11.12
2023-04-15T07:01:04.703Z,11.34
2023-04-15T07:05:04.792Z,11.46
2023-04-15T07:09:05.700Z,11.52
2023-04-15T07:13:05.272Z,11.59
2023-04-15T07:17:04.849Z,11.59
2023-04-15T07:21:04.672Z,11.06
2023-04-15T07:33:44.216Z,11.47
2023-04-15T07:37:44.198Z,11.68
2023-04-15T07:41:44.267Z,11.65
2023-04-15T07:45:44.455Z,11.61
2023-04-15T07:54:17.125Z,11.89
2023-04-15T07:58:04.422Z,11.93
2023-04-15T08:02:04.392Z,11.98
2023-04-15T08:06:04.631Z,12.01
2023-04-15T08:10:04.796Z,11.93
2023-04-15T08:14:04.323Z,12.05
2023-04-15T08:18:04.634Z,12.20
2023-04-15T08:22:04.143Z,11.63
2023-04-15T08:26:04.169Z,11.74
2023-04-15T08:30:05.076Z,11.93
2023-04-15T08:34:04.190Z,12.17
2023-04-15T08:38:03.998Z,12.34
2023-04-15T08:42:03.913Z,12.32
2023-04-15T08:46:04.652Z,11.93
2023-04-15T08:50:04.092Z,12.27
2023-04-15T08:54:04.127Z,12.35
2023-04-15T08:58:04.149Z,12.42
2023-04-15T09:02:03.882Z,12.62
2023-04-15T09:14:43.590Z,12.80
2023-04-15T09:18:53.886Z,12.78
2023-04-15T09:22:43.483Z,12.78
2023-04-15T09:26:43.881Z,12.87
2023-04-15T09:30:43.446Z,12.75
2023-04-15T09:34:43.859Z,12.72
2023-04-15T09:38:43.410Z,12.78
2023-04-15T09:42:43.461Z,12.87
2023-04-15T09:46:43.702Z,12.79
2023-04-15T09:55:18.176Z,12.57
2023-04-15T09:59:13.621Z,12.59
2023-04-15T10:03:03.441Z,12.31
2023-04-15T10:07:03.615Z,12.08
2023-04-15T10:11:03.290Z,12.05
2023-04-15T10:15:03.704Z,12.00
2023-04-15T10:19:03.415Z,11.87
2023-04-15T10:23:03.343Z,12.08
2023-04-15T10:27:03.633Z,12.13
2023-04-15T10:31:03.709Z,12.38
2023-04-15T10:35:03.629Z,12.73
2023-04-15T10:39:03.635Z,12.64
2023-04-15T10:43:03.271Z,12.52
2023-04-15T10:47:03.111Z,12.89
2023-04-15T10:51:03.093Z,12.90
2023-04-15T10:55:03.058Z,12.59
2023-04-15T11:16:22.583Z,12.84
2023-04-15T11:20:22.899Z,13.03
2023-04-15T11:24:22.919Z,13.04
2023-04-15T11:28:22.426Z,13.04
2023-04-15T11:32:22.450Z,13.04
2023-04-15T11:36:22.396Z,13.19
2023-04-15T11:40:22.498Z,12.91
2023-04-15T11:44:22.285Z,12.94
2023-04-15T11:48:22.333Z,13.14
2023-04-15T11:52:22.619Z,12.80
2023-04-15T11:56:22.543Z,12.34
2023-04-15T12:00:22.953Z,12.39
2023-04-15T12:04:25.175Z,12.70
2023-04-15T12:08:22.421Z,12.70
2023-04-15T12:12:22.418Z,12.67
2023-04-15T12:16:22.408Z,13.03
2023-04-15T12:20:22.509Z,13.04
2023-04-15T12:24:22.310Z,13.34
2023-04-15T12:28:22.474Z,13.18
2023-04-15T12:32:22.318Z,13.11
2023-04-15T12:36:22.502Z,13.14
2023-04-15T12:42:00.683Z,12.91
2023-04-15T12:46:00.845Z,12.94
2023-04-15T12:50:00.444Z,12.86
2023-04-15T12:54:00.480Z,12.60
2023-04-15T12:58:00.759Z,12.60
2023-04-15T13:06:20.108Z,12.76
2023-04-15T13:10:20.074Z,12.73
2023-04-15T13:14:19.992Z,12.75
2023-04-15T13:18:20.493Z,12.67
2023-04-15T13:22:20.330Z,12.56
2023-04-15T13:26:19.930Z,12.48
2023-04-15T13:30:19.869Z,12.07
2023-04-15T13:34:20.491Z,12.21
2023-04-15T13:38:19.835Z,12.49
2023-04-15T13:42:19.790Z,12.84
2023-04-15T13:46:19.939Z,13.10
2023-04-15T13:50:19.725Z,13.06
2023-04-15T13:54:19.880Z,12.83
2023-04-15T13:58:19.857Z,12.57
2023-04-15T14:02:19.903Z,12.29
2023-04-15T14:06:19.869Z,12.24
2023-04-15T14:10:19.600Z,12.27
2023-04-15T14:14:19.846Z,12.32
2023-04-15T14:18:19.890Z,12.00
2023-04-15T14:22:19.863Z,12.27
2023-04-15T14:26:19.413Z,12.23
2023-04-15T14:30:19.346Z,12.31
2023-04-15T14:41:15.880Z,12.28
2023-04-15T15:04:07.832Z,12.36
2023-04-15T15:07:57.460Z,12.34
2023-04-15T15:11:57.485Z,12.51
2023-04-15T15:15:57.070Z,12.46
2023-04-15T15:19:57.517Z,12.32
2023-04-15T15:23:57.281Z,12.17
2023-04-15T15:27:57.553Z,11.96
2023-04-15T15:31:58.074Z,11.96
2023-04-15T15:35:57.952Z,12.32
2023-04-15T15:39:58.460Z,12.21
2023-04-15T15:43:58.606Z,12.49
2023-04-15T15:47:58.528Z,12.46
2023-04-15T15:51:58.643Z,12.31
2023-04-15T16:07:48.881Z,11.73
2023-04-15T16:11:48.791Z,11.81
2023-04-15T16:15:48.821Z,11.98
2023-04-15T16:19:56.851Z,11.76
2023-04-15T16:23:49.771Z,12.20
2023-04-15T16:28:00.882Z,12.21
2023-04-15T16:31:49.719Z,11.97
2023-04-15T16:35:48.807Z,12.17
2023-04-15T16:39:48.828Z,11.84
2023-04-15T16:43:48.933Z,11.91
2023-04-15T16:52:34.843Z,11.84
2023-04-15T16:56:34.936Z,11.97
2023-04-15T17:00:35.101Z,12.25
2023-04-15T17:08:54.757Z,12.38
2023-04-15T17:12:54.835Z,12.49
2023-04-15T17:16:54.722Z,12.64
2023-04-15T17:20:54.520Z,12.75
2023-04-15T17:24:54.661Z,12.66
2023-04-15T17:28:54.791Z,12.75
2023-04-15T17:32:54.862Z,12.76
2023-04-15T17:36:54.611Z,12.48
2023-04-15T17:40:54.641Z,12.42
2023-04-15T17:44:54.996Z,12.05
2023-04-15T17:48:54.924Z,12.31
2023-04-15T17:52:54.638Z,12.53
2023-04-15T17:56:54.773Z,12.63
2023-04-15T18:00:54.805Z,12.46
2023-04-15T18:04:55.985Z,12.53
2023-04-15T18:17:34.885Z,12.66
2023-04-15T18:21:34.602Z,12.69
2023-04-15T18:25:35.041Z,12.73
2023-04-15T18:29:34.541Z,12.76
2023-04-15T18:33:35.154Z,12.76
2023-04-15T18:37:34.601Z,12.76
2023-04-15T18:41:34.505Z,12.76
2023-04-15T18:45:34.512Z,12.76
2023-04-15T18:49:34.545Z,12.59
2023-04-15T18:53:34.518Z,12.55
2023-04-15T18:57:34.840Z,12.56
2023-04-15T19:01:34.423Z,12.59
2023-04-15T19:05:34.571Z,12.59
2023-04-15T19:09:34.236Z,12.59
2023-04-15T19:13:34.628Z,12.59
2023-04-15T19:17:34.172Z,12.59
2023-04-15T19:21:34.299Z,12.56
2023-04-15T19:25:35.008Z,12.56
2023-04-15T19:29:34.746Z,12.56
2023-04-15T19:33:35.026Z,12.44
2023-04-15T19:37:48.884Z,12.45
2023-04-15T19:45:55.204Z,12.31
2023-04-15T19:49:55.027Z,12.28
2023-04-15T19:53:55.101Z,12.31
2023-04-15T19:57:54.732Z,12.32
2023-04-15T20:01:55.264Z,12.24
2023-04-15T20:05:55.068Z,12.21
2023-04-15T20:09:54.642Z,12.24
2023-04-15T20:13:55.065Z,12.24
2023-04-15T20:17:54.583Z,12.24
2023-04-15T20:21:54.583Z,12.17
2023-04-15T20:25:54.557Z,12.13
2023-04-15T20:29:54.487Z,12.18
2023-04-15T20:33:54.547Z,12.18
2023-04-15T20:37:54.437Z,12.01
2023-04-15T20:41:54.373Z,12.10
2023-04-15T20:45:54.620Z,12.10
2023-04-15T20:49:54.535Z,12.11
2023-04-15T20:53:54.244Z,12.14
2023-04-15T20:57:54.293Z,12.14
2023-04-15T21:01:54.659Z,12.17
2023-04-15T21:05:54.746Z,12.11
2023-04-15T21:09:54.266Z,12.11
2023-04-15T21:13:54.293Z,12.13
2023-04-15T21:17:54.580Z,12.00
2023-04-15T21:21:54.692Z,12.07
2023-04-15T21:25:55.074Z,12.05
2023-04-15T21:29:54.834Z,12.10
2023-04-15T21:33:54.861Z,12.11
2023-04-15T21:37:55.112Z,12.13
2023-04-15T21:41:55.121Z,12.13
2023-04-15T21:46:24.176Z,12.11
2023-04-15T21:49:56.601Z,12.08
2023-04-15T21:53:55.260Z,12.08
2023-04-15T21:57:55.375Z,12.00
2023-04-15T22:01:56.190Z,11.98
2023-04-15T22:05:56.089Z,11.94
2023-04-15T22:09:56.091Z,11.97
2023-04-15T22:13:56.133Z,12.00
2023-04-15T22:17:56.583Z,12.00
2023-04-15T22:21:56.689Z,12.00
2023-04-15T22:25:57.196Z,11.97
2023-04-15T22:29:56.861Z,12.00
2023-04-15T22:33:57.212Z,11.98
2023-04-15T22:37:57.667Z,12.00
2023-04-15T22:41:57.570Z,12.01
2023-04-15T22:45:58.322Z,11.97
2023-04-15T22:49:57.933Z,11.96
2023-04-15T22:53:58.039Z,11.96
2023-04-15T22:57:58.616Z,11.91
2023-04-15T23:01:58.645Z,11.89
2023-04-15T23:05:59.087Z,11.91
2023-04-15T23:14:04.665Z,11.94
2023-04-15T23:18:03.188Z,11.96
2023-04-15T23:22:03.142Z,12.00
2023-04-15T23:26:03.162Z,11.90
2023-04-15T23:30:02.868Z,11.91
2023-04-15T23:34:03.137Z,11.94
2023-04-15T23:38:03.173Z,11.93
2023-04-15T23:42:03.158Z,11.89
2023-04-15T23:46:03.103Z,11.91
2023-04-15T23:50:02.909Z,11.83
2023-04-15T23:54:03.138Z,11.87
2023-04-15T23:58:03.109Z,11.89
